sensor_id;sensor_type;location;lat;lon;timestamp;P1;durP1;ratioP1;P2;durP2;ratioP2
1685;SDS011;840;47.980;7.830;2022-09-01T00:01:24;7.27;;;6.57;;
1685;SDS011;840;47.980;7.830;2022-09-01T00:03:52;10.30;;;7.00;;
1685;SDS011;840;47.980;7.830;2022-09-01T00:06:20;7.20;;;6.50;;
1685;SDS011;840;47.980;7.830;2022-09-01T00:08:48;6.87;;;6.27;;
1685;SDS011;840;47.980;7.830;2022-09-01T00:11:17;6.70;;;6.10;;
1685;SDS011;840;47.980;7.830;2022-09-01T00:13:45;7.13;;;6.00;;
1685;SDS011;840;47.980;7.830;2022-09-01T00:16:13;6.90;;;6.17;;
1685;SDS011;840;47.980;7.830;2022-09-01T00:18:43;7.67;;;7.03;;
1685;SDS011;840;47.980;7.830;2022-09-01T00:21:13;6.93;;;6.43;;
1685;SDS011;840;47.980;7.830;2022-09-01T00:23:40;7.07;;;6.50;;
1685;SDS011;840;47.980;7.830;2022-09-01T00:26:07;6.93;;;6.00;;
1685;SDS011;840;47.980;7.830;2022-09-01T00:28:35;9.30;;;7.00;;
1685;SDS011;840;47.980;7.830;2022-09-01T00:31:03;7.00;;;6.40;;
1685;SDS011;840;47.980;7.830;2022-09-01T00:33:32;6.40;;;5.57;;
1685;SDS011;840;47.980;7.830;2022-09-01T00:35:59;6.73;;;6.07;;
1685;SDS011;840;47.980;7.830;2022-09-01T00:38:26;6.67;;;6.17;;
1685;SDS011;840;47.980;7.830;2022-09-01T00:40:53;6.93;;;6.40;;
1685;SDS011;840;47.980;7.830;2022-09-01T00:43:21;6.93;;;6.33;;
1685;SDS011;840;47.980;7.830;2022-09-01T00:45:50;8.70;;;7.27;;
1685;SDS011;840;47.980;7.830;2022-09-01T00:48:17;6.87;;;6.17;;
1685;SDS011;840;47.980;7.830;2022-09-01T00:50:45;8.00;;;7.23;;
1685;SDS011;840;47.980;7.830;2022-09-01T00:53:13;7.50;;;6.80;;
1685;SDS011;840;47.980;7.830;2022-09-01T00:55:39;7.20;;;5.70;;
1685;SDS011;840;47.980;7.830;2022-09-01T00:58:07;6.60;;;6.00;;
1685;SDS011;840;47.980;7.830;2022-09-01T01:00:35;5.80;;;5.37;;
1685;SDS011;840;47.980;7.830;2022-09-01T01:03:06;6.70;;;6.10;;
1685;SDS011;840;47.980;7.830;2022-09-01T01:12:18;7.37;;;6.67;;
1685;SDS011;840;47.980;7.830;2022-09-01T01:14:46;6.83;;;6.30;;
1685;SDS011;840;47.980;7.830;2022-09-01T01:17:15;7.53;;;5.80;;
1685;SDS011;840;47.980;7.830;2022-09-01T01:19:44;7.47;;;6.77;;
1685;SDS011;840;47.980;7.830;2022-09-01T01:22:33;5.93;;;5.43;;
1685;SDS011;840;47.980;7.830;2022-09-01T01:25:25;7.60;;;5.93;;
1685;SDS011;840;47.980;7.830;2022-09-01T01:28:02;6.23;;;5.73;;
1685;SDS011;840;47.980;7.830;2022-09-01T01:30:33;8.40;;;6.43;;
1685;SDS011;840;47.980;7.830;2022-09-01T01:33:01;6.73;;;6.03;;
1685;SDS011;840;47.980;7.830;2022-09-01T01:35:29;6.63;;;6.03;;
1685;SDS011;840;47.980;7.830;2022-09-01T01:37:58;6.50;;;6.00;;
1685;SDS011;840;47.980;7.830;2022-09-01T01:40:28;10.83;;;5.83;;
1685;SDS011;840;47.980;7.830;2022-09-01T01:42:55;6.80;;;6.30;;
1685;SDS011;840;47.980;7.830;2022-09-01T01:45:23;7.97;;;7.03;;
1685;SDS011;840;47.980;7.830;2022-09-01T01:47:50;6.53;;;5.93;;
1685;SDS011;840;47.980;7.830;2022-09-01T01:50:18;8.43;;;6.20;;
1685;SDS011;840;47.980;7.830;2022-09-01T01:52:46;5.83;;;5.30;;
1685;SDS011;840;47.980;7.830;2022-09-01T01:55:13;5.63;;;5.27;;
1685;SDS011;840;47.980;7.830;2022-09-01T01:57:44;6.17;;;5.57;;
1685;SDS011;840;47.980;7.830;2022-09-01T02:00:14;6.67;;;6.03;;
1685;SDS011;840;47.980;7.830;2022-09-01T02:02:43;6.07;;;4.97;;
1685;SDS011;840;47.980;7.830;2022-09-01T02:05:16;8.63;;;4.87;;
1685;SDS011;840;47.980;7.830;2022-09-01T02:07:49;6.57;;;5.60;;
1685;SDS011;840;47.980;7.830;2022-09-01T02:10:20;6.63;;;6.03;;
1685;SDS011;840;47.980;7.830;2022-09-01T02:12:53;12.50;;;6.53;;
1685;SDS011;840;47.980;7.830;2022-09-01T02:15:20;6.57;;;5.97;;
1685;SDS011;840;47.980;7.830;2022-09-01T02:17:46;5.37;;;4.87;;
1685;SDS011;840;47.980;7.830;2022-09-01T02:20:14;5.53;;;5.03;;
1685;SDS011;840;47.980;7.830;2022-09-01T02:22:41;5.90;;;5.30;;
1685;SDS011;840;47.980;7.830;2022-09-01T02:25:09;6.40;;;5.23;;
1685;SDS011;840;47.980;7.830;2022-09-01T02:27:40;7.00;;;6.20;;
1685;SDS011;840;47.980;7.830;2022-09-01T02:30:09;6.43;;;5.83;;
1685;SDS011;840;47.980;7.830;2022-09-01T02:32:36;6.97;;;6.37;;
1685;SDS011;840;47.980;7.830;2022-09-01T02:35:06;6.00;;;5.40;;
1685;SDS011;840;47.980;7.830;2022-09-01T02:37:36;7.13;;;6.00;;
1685;SDS011;840;47.980;7.830;2022-09-01T02:40:04;6.13;;;5.23;;
1685;SDS011;840;47.980;7.830;2022-09-01T02:42:35;6.00;;;5.43;;
1685;SDS011;840;47.980;7.830;2022-09-01T02:45:05;6.23;;;5.73;;
1685;SDS011;840;47.980;7.830;2022-09-01T02:47:41;6.87;;;6.27;;
1685;SDS011;840;47.980;7.830;2022-09-01T02:50:11;6.70;;;6.10;;
1685;SDS011;840;47.980;7.830;2022-09-01T02:52:41;5.90;;;5.43;;
1685;SDS011;840;47.980;7.830;2022-09-01T02:55:09;7.13;;;5.90;;
1685;SDS011;840;47.980;7.830;2022-09-01T02:57:36;11.13;;;5.87;;
1685;SDS011;840;47.980;7.830;2022-09-01T03:00:05;6.80;;;6.20;;
1685;SDS011;840;47.980;7.830;2022-09-01T03:02:46;6.60;;;5.83;;
1685;SDS011;840;47.980;7.830;2022-09-01T03:05:16;5.97;;;5.47;;
1685;SDS011;840;47.980;7.830;2022-09-01T03:07:49;7.10;;;6.50;;
1685;SDS011;840;47.980;7.830;2022-09-01T03:10:20;6.80;;;6.20;;
1685;SDS011;840;47.980;7.830;2022-09-01T03:12:52;7.50;;;5.70;;
1685;SDS011;840;47.980;7.830;2022-09-01T03:15:19;9.37;;;7.07;;
1685;SDS011;840;47.980;7.830;2022-09-01T03:17:48;8.30;;;7.13;;
1685;SDS011;840;47.980;7.830;2022-09-01T03:20:16;5.80;;;5.20;;
1685;SDS011;840;47.980;7.830;2022-09-01T03:22:45;6.93;;;6.40;;
1685;SDS011;840;47.980;7.830;2022-09-01T03:25:13;7.07;;;5.80;;
1685;SDS011;840;47.980;7.830;2022-09-01T03:27:40;6.13;;;5.47;;
1685;SDS011;840;47.980;7.830;2022-09-01T03:30:08;6.27;;;5.77;;
1685;SDS011;840;47.980;7.830;2022-09-01T03:32:35;7.27;;;6.67;;
1685;SDS011;840;47.980;7.830;2022-09-01T03:35:04;7.33;;;6.73;;
1685;SDS011;840;47.980;7.830;2022-09-01T03:37:33;8.40;;;7.70;;
1685;SDS011;840;47.980;7.830;2022-09-01T03:40:01;8.80;;;6.53;;
1685;SDS011;840;47.980;7.830;2022-09-01T03:42:29;6.77;;;6.17;;
1685;SDS011;840;47.980;7.830;2022-09-01T03:44:56;7.07;;;6.40;;
1685;SDS011;840;47.980;7.830;2022-09-01T03:47:23;8.30;;;7.50;;
1685;SDS011;840;47.980;7.830;2022-09-01T03:49:51;9.70;;;7.60;;
1685;SDS011;840;47.980;7.830;2022-09-01T03:52:20;6.90;;;5.67;;
1685;SDS011;840;47.980;7.830;2022-09-01T03:54:47;8.30;;;6.80;;
1685;SDS011;840;47.980;7.830;2022-09-01T03:57:19;9.07;;;6.73;;
1685;SDS011;840;47.980;7.830;2022-09-01T03:59:47;7.93;;;7.13;;
1685;SDS011;840;47.980;7.830;2022-09-01T04:02:14;7.03;;;6.30;;
1685;SDS011;840;47.980;7.830;2022-09-01T04:04:41;7.23;;;6.53;;
1685;SDS011;840;47.980;7.830;2022-09-01T04:07:08;6.90;;;6.33;;
1685;SDS011;840;47.980;7.830;2022-09-01T04:09:36;6.70;;;6.23;;
1685;SDS011;840;47.980;7.830;2022-09-01T04:12:04;7.97;;;7.37;;
1685;SDS011;840;47.980;7.830;2022-09-01T04:14:33;8.00;;;7.33;;
1685;SDS011;840;47.980;7.830;2022-09-01T04:17:00;7.90;;;6.50;;
1685;SDS011;840;47.980;7.830;2022-09-01T04:19:44;6.90;;;6.30;;
1685;SDS011;840;47.980;7.830;2022-09-01T04:22:11;7.20;;;6.40;;
1685;SDS011;840;47.980;7.830;2022-09-01T04:24:39;10.03;;;6.37;;
1685;SDS011;840;47.980;7.830;2022-09-01T04:27:09;10.03;;;6.93;;
1685;SDS011;840;47.980;7.830;2022-09-01T04:29:36;8.93;;;7.00;;
1685;SDS011;840;47.980;7.830;2022-09-01T04:32:04;7.63;;;6.93;;
1685;SDS011;840;47.980;7.830;2022-09-01T04:34:34;7.30;;;6.70;;
1685;SDS011;840;47.980;7.830;2022-09-01T04:37:06;8.27;;;7.43;;
1685;SDS011;840;47.980;7.830;2022-09-01T04:39:34;6.97;;;6.27;;
1685;SDS011;840;47.980;7.830;2022-09-01T04:42:06;8.03;;;6.70;;
1685;SDS011;840;47.980;7.830;2022-09-01T04:44:33;11.37;;;5.90;;
1685;SDS011;840;47.980;7.830;2022-09-01T04:47:00;6.07;;;5.50;;
1685;SDS011;840;47.980;7.830;2022-09-01T04:49:27;7.17;;;6.57;;
1685;SDS011;840;47.980;7.830;2022-09-01T04:51:57;7.83;;;7.03;;
1685;SDS011;840;47.980;7.830;2022-09-01T04:54:24;9.67;;;7.03;;
1685;SDS011;840;47.980;7.830;2022-09-01T04:56:51;7.20;;;6.27;;
1685;SDS011;840;47.980;7.830;2022-09-01T04:59:20;7.30;;;6.53;;
1685;SDS011;840;47.980;7.830;2022-09-01T05:01:51;23.60;;;9.13;;
1685;SDS011;840;47.980;7.830;2022-09-01T05:04:22;7.73;;;6.93;;
1685;SDS011;840;47.980;7.830;2022-09-01T05:06:52;7.13;;;5.90;;
1685;SDS011;840;47.980;7.830;2022-09-01T05:09:24;8.03;;;7.27;;
1685;SDS011;840;47.980;7.830;2022-09-01T05:11:54;7.63;;;6.93;;
1685;SDS011;840;47.980;7.830;2022-09-01T05:14:23;8.00;;;6.67;;
1685;SDS011;840;47.980;7.830;2022-09-01T05:16:54;7.33;;;6.60;;
1685;SDS011;840;47.980;7.830;2022-09-01T05:19:22;8.93;;;6.60;;
1685;SDS011;840;47.980;7.830;2022-09-01T05:21:53;8.63;;;7.80;;
1685;SDS011;840;47.980;7.830;2022-09-01T05:24:22;6.83;;;6.33;;
1685;SDS011;840;47.980;7.830;2022-09-01T05:26:49;8.67;;;7.77;;
1685;SDS011;840;47.980;7.830;2022-09-01T05:29:16;7.80;;;7.00;;
1685;SDS011;840;47.980;7.830;2022-09-01T05:31:47;8.07;;;7.27;;
1685;SDS011;840;47.980;7.830;2022-09-01T05:34:14;7.07;;;6.10;;
1685;SDS011;840;47.980;7.830;2022-09-01T05:36:47;14.40;;;10.20;;
1685;SDS011;840;47.980;7.830;2022-09-01T05:39:14;12.33;;;7.60;;
1685;SDS011;840;47.980;7.830;2022-09-01T05:41:41;15.57;;;7.73;;
1685;SDS011;840;47.980;7.830;2022-09-01T05:44:10;26.83;;;10.27;;
1685;SDS011;840;47.980;7.830;2022-09-01T05:46:39;27.53;;;12.93;;
1685;SDS011;840;47.980;7.830;2022-09-01T05:49:10;16.70;;;8.83;;
1685;SDS011;840;47.980;7.830;2022-09-01T05:51:40;12.60;;;8.40;;
1685;SDS011;840;47.980;7.830;2022-09-01T05:54:08;13.53;;;7.50;;
1685;SDS011;840;47.980;7.830;2022-09-01T05:56:36;9.60;;;8.53;;
1685;SDS011;840;47.980;7.830;2022-09-01T05:59:04;8.23;;;7.57;;
1685;SDS011;840;47.980;7.830;2022-09-01T06:01:32;7.73;;;6.97;;
1685;SDS011;840;47.980;7.830;2022-09-01T06:04:05;9.37;;;7.37;;
1685;SDS011;840;47.980;7.830;2022-09-01T06:06:36;7.30;;;6.70;;
1685;SDS011;840;47.980;7.830;2022-09-01T06:09:05;8.03;;;7.27;;
1685;SDS011;840;47.980;7.830;2022-09-01T06:11:33;7.07;;;6.57;;
1685;SDS011;840;47.980;7.830;2022-09-01T06:13:59;6.93;;;6.23;;
1685;SDS011;840;47.980;7.830;2022-09-01T06:16:28;7.00;;;6.40;;
1685;SDS011;840;47.980;7.830;2022-09-01T06:18:55;8.07;;;6.97;;
1685;SDS011;840;47.980;7.830;2022-09-01T06:21:23;7.77;;;7.17;;
1685;SDS011;840;47.980;7.830;2022-09-01T06:23:55;8.57;;;7.13;;
1685;SDS011;840;47.980;7.830;2022-09-01T06:26:24;9.30;;;7.27;;
1685;SDS011;840;47.980;7.830;2022-09-01T06:28:53;7.10;;;6.50;;
1685;SDS011;840;47.980;7.830;2022-09-01T06:31:20;10.40;;;7.13;;
1685;SDS011;840;47.980;7.830;2022-09-01T06:33:50;8.30;;;7.43;;
1685;SDS011;840;47.980;7.830;2022-09-01T06:36:18;11.10;;;8.63;;
1685;SDS011;840;47.980;7.830;2022-09-01T06:38:47;9.40;;;7.03;;
1685;SDS011;840;47.980;7.830;2022-09-01T06:41:18;8.63;;;7.80;;
1685;SDS011;840;47.980;7.830;2022-09-01T06:43:46;7.70;;;7.00;;
1685;SDS011;840;47.980;7.830;2022-09-01T06:46:13;8.97;;;8.17;;
1685;SDS011;840;47.980;7.830;2022-09-01T06:48:41;9.43;;;8.63;;
1685;SDS011;840;47.980;7.830;2022-09-01T06:51:11;7.80;;;7.10;;
1685;SDS011;840;47.980;7.830;2022-09-01T06:53:39;12.00;;;9.20;;
1685;SDS011;840;47.980;7.830;2022-09-01T06:56:07;10.80;;;9.90;;
1685;SDS011;840;47.980;7.830;2022-09-01T06:58:38;10.03;;;9.13;;
1685;SDS011;840;47.980;7.830;2022-09-01T07:01:09;10.70;;;9.73;;
1685;SDS011;840;47.980;7.830;2022-09-01T07:03:39;10.53;;;9.53;;
1685;SDS011;840;47.980;7.830;2022-09-01T07:06:06;10.30;;;9.50;;
1685;SDS011;840;47.980;7.830;2022-09-01T07:08:34;10.17;;;9.10;;
1685;SDS011;840;47.980;7.830;2022-09-01T07:11:03;11.03;;;9.90;;
1685;SDS011;840;47.980;7.830;2022-09-01T07:13:31;11.13;;;9.90;;
1685;SDS011;840;47.980;7.830;2022-09-01T07:16:02;10.27;;;9.37;;
1685;SDS011;840;47.980;7.830;2022-09-01T07:18:30;10.03;;;9.13;;
1685;SDS011;840;47.980;7.830;2022-09-01T07:20:58;9.37;;;8.57;;
1685;SDS011;840;47.980;7.830;2022-09-01T07:23:31;15.33;;;10.87;;
1685;SDS011;840;47.980;7.830;2022-09-01T07:26:04;12.33;;;11.13;;
1685;SDS011;840;47.980;7.830;2022-09-01T07:28:32;10.60;;;9.70;;
1685;SDS011;840;47.980;7.830;2022-09-01T07:30:58;10.07;;;9.00;;
1685;SDS011;840;47.980;7.830;2022-09-01T07:33:26;12.00;;;10.83;;
1685;SDS011;840;47.980;7.830;2022-09-01T07:35:54;11.23;;;10.20;;
1685;SDS011;840;47.980;7.830;2022-09-01T07:38:21;11.00;;;10.00;;
1685;SDS011;840;47.980;7.830;2022-09-01T07:40:48;10.07;;;9.17;;
1685;SDS011;840;47.980;7.830;2022-09-01T07:43:18;11.40;;;10.47;;
1685;SDS011;840;47.980;7.830;2022-09-01T07:45:49;10.67;;;9.80;;
1685;SDS011;840;47.980;7.830;2022-09-01T07:48:17;9.53;;;8.73;;
1685;SDS011;840;47.980;7.830;2022-09-01T07:50:47;9.23;;;8.43;;
1685;SDS011;840;47.980;7.830;2022-09-01T07:53:17;18.27;;;9.70;;
1685;SDS011;840;47.980;7.830;2022-09-01T07:55:46;9.27;;;8.40;;
1685;SDS011;840;47.980;7.830;2022-09-01T07:58:14;8.73;;;7.93;;
1685;SDS011;840;47.980;7.830;2022-09-01T08:00:43;13.70;;;12.20;;
1685;SDS011;840;47.980;7.830;2022-09-01T08:03:11;8.53;;;7.73;;
1685;SDS011;840;47.980;7.830;2022-09-01T08:05:38;11.47;;;10.10;;
1685;SDS011;840;47.980;7.830;2022-09-01T08:08:07;10.70;;;7.60;;
1685;SDS011;840;47.980;7.830;2022-09-01T08:10:35;7.77;;;7.03;;
1685;SDS011;840;47.980;7.830;2022-09-01T08:13:04;6.87;;;6.33;;
1685;SDS011;840;47.980;7.830;2022-09-01T08:15:31;9.03;;;8.17;;
1685;SDS011;840;47.980;7.830;2022-09-01T08:17:58;8.77;;;7.97;;
1685;SDS011;840;47.980;7.830;2022-09-01T08:20:25;8.40;;;7.70;;
1685;SDS011;840;47.980;7.830;2022-09-01T08:22:52;13.80;;;10.67;;
1685;SDS011;840;47.980;7.830;2022-09-01T08:25:20;15.23;;;11.00;;
1685;SDS011;840;47.980;7.830;2022-09-01T08:27:47;11.30;;;10.20;;
1685;SDS011;840;47.980;7.830;2022-09-01T08:30:14;13.23;;;11.93;;
1685;SDS011;840;47.980;7.830;2022-09-01T08:32:41;17.03;;;14.70;;
1685;SDS011;840;47.980;7.830;2022-09-01T08:35:08;15.53;;;13.97;;
1685;SDS011;840;47.980;7.830;2022-09-01T08:37:36;15.97;;;14.30;;
1685;SDS011;840;47.980;7.830;2022-09-01T08:40:03;16.60;;;14.17;;
1685;SDS011;840;47.980;7.830;2022-09-01T08:42:39;21.30;;;15.50;;
1685;SDS011;840;47.980;7.830;2022-09-01T08:45:28;17.03;;;14.10;;
1685;SDS011;840;47.980;7.830;2022-09-01T08:47:59;26.80;;;15.50;;
1685;SDS011;840;47.980;7.830;2022-09-01T08:50:33;19.07;;;15.77;;
1685;SDS011;840;47.980;7.830;2022-09-01T08:53:04;17.60;;;15.33;;
1685;SDS011;840;47.980;7.830;2022-09-01T08:55:36;14.50;;;12.90;;
1685;SDS011;840;47.980;7.830;2022-09-01T08:58:08;17.27;;;13.53;;
1685;SDS011;840;47.980;7.830;2022-09-01T09:00:40;17.93;;;15.17;;
1685;SDS011;840;47.980;7.830;2022-09-01T09:03:12;15.57;;;13.97;;
1685;SDS011;840;47.980;7.830;2022-09-01T09:05:48;18.00;;;15.27;;
1685;SDS011;840;47.980;7.830;2022-09-01T09:08:30;17.70;;;14.70;;
1685;SDS011;840;47.980;7.830;2022-09-01T09:11:17;16.50;;;14.37;;
1685;SDS011;840;47.980;7.830;2022-09-01T09:13:58;13.70;;;12.40;;
1685;SDS011;840;47.980;7.830;2022-09-01T09:16:36;16.30;;;12.63;;
1685;SDS011;840;47.980;7.830;2022-09-01T09:19:08;14.00;;;12.60;;
1685;SDS011;840;47.980;7.830;2022-09-01T09:21:40;14.20;;;12.73;;
1685;SDS011;840;47.980;7.830;2022-09-01T09:24:09;16.10;;;14.50;;
1685;SDS011;840;47.980;7.830;2022-09-01T09:26:38;14.43;;;13.03;;
1685;SDS011;840;47.980;7.830;2022-09-01T09:29:06;50.53;;;18.10;;
1685;SDS011;840;47.980;7.830;2022-09-01T09:31:34;12.50;;;11.30;;
1685;SDS011;840;47.980;7.830;2022-09-01T09:34:02;11.83;;;10.10;;
1685;SDS011;840;47.980;7.830;2022-09-01T09:36:40;12.93;;;11.63;;
1685;SDS011;840;47.980;7.830;2022-09-01T09:39:11;13.83;;;12.53;;
1685;SDS011;840;47.980;7.830;2022-09-01T09:41:40;15.20;;;13.43;;
1685;SDS011;840;47.980;7.830;2022-09-01T09:44:18;24.03;;;13.87;;
1685;SDS011;840;47.980;7.830;2022-09-01T09:46:50;12.50;;;11.20;;
1685;SDS011;840;47.980;7.830;2022-09-01T09:49:18;13.73;;;12.53;;
1685;SDS011;840;47.980;7.830;2022-09-01T09:51:49;35.27;;;14.73;;
1685;SDS011;840;47.980;7.830;2022-09-01T09:54:18;13.90;;;12.60;;
1685;SDS011;840;47.980;7.830;2022-09-01T09:56:48;12.87;;;11.67;;
1685;SDS011;840;47.980;7.830;2022-09-01T09:59:37;13.63;;;11.73;;
1685;SDS011;840;47.980;7.830;2022-09-01T10:02:16;44.30;;;16.70;;
1685;SDS011;840;47.980;7.830;2022-09-01T10:04:50;11.37;;;10.30;;
1685;SDS011;840;47.980;7.830;2022-09-01T10:07:22;10.77;;;9.63;;
1685;SDS011;840;47.980;7.830;2022-09-01T10:10:06;12.63;;;11.40;;
1685;SDS011;840;47.980;7.830;2022-09-01T10:12:50;11.27;;;10.17;;
1685;SDS011;840;47.980;7.830;2022-09-01T10:15:20;18.53;;;13.00;;
1685;SDS011;840;47.980;7.830;2022-09-01T10:17:48;13.63;;;12.00;;
1685;SDS011;840;47.980;7.830;2022-09-01T10:20:18;12.60;;;11.37;;
1685;SDS011;840;47.980;7.830;2022-09-01T10:22:47;10.43;;;9.33;;
1685;SDS011;840;47.980;7.830;2022-09-01T10:25:16;9.37;;;8.57;;
1685;SDS011;840;47.980;7.830;2022-09-01T10:27:46;9.40;;;8.60;;
1685;SDS011;840;47.980;7.830;2022-09-01T10:30:18;11.13;;;9.53;;
1685;SDS011;840;47.980;7.830;2022-09-01T10:32:47;10.07;;;9.27;;
1685;SDS011;840;47.980;7.830;2022-09-01T10:35:17;8.37;;;7.67;;
1685;SDS011;840;47.980;7.830;2022-09-01T10:37:48;11.53;;;8.80;;
1685;SDS011;840;47.980;7.830;2022-09-01T10:40:33;10.37;;;9.27;;
1685;SDS011;840;47.980;7.830;2022-09-01T10:46:16;11.50;;;9.37;;
1685;SDS011;840;47.980;7.830;2022-09-01T10:55:20;10.83;;;9.63;;
1685;SDS011;840;47.980;7.830;2022-09-01T10:57:53;7.50;;;6.90;;
1685;SDS011;840;47.980;7.830;2022-09-01T11:09:18;6.50;;;5.90;;
1685;SDS011;840;47.980;7.830;2022-09-01T11:11:54;6.57;;;5.40;;
1685;SDS011;840;47.980;7.830;2022-09-01T11:14:32;5.67;;;5.27;;
1685;SDS011;840;47.980;7.830;2022-09-01T11:19:56;4.77;;;4.37;;
1685;SDS011;840;47.980;7.830;2022-09-01T11:22:34;5.70;;;5.20;;
1685;SDS011;840;47.980;7.830;2022-09-01T11:28:01;5.20;;;4.80;;
1685;SDS011;840;47.980;7.830;2022-09-01T11:30:34;4.60;;;4.30;;
1685;SDS011;840;47.980;7.830;2022-09-01T11:33:25;5.40;;;4.90;;
1685;SDS011;840;47.980;7.830;2022-09-01T11:36:14;4.90;;;4.60;;
1685;SDS011;840;47.980;7.830;2022-09-01T11:38:50;6.23;;;4.87;;
1685;SDS011;840;47.980;7.830;2022-09-01T11:41:20;4.73;;;4.33;;
1685;SDS011;840;47.980;7.830;2022-09-01T11:43:49;4.80;;;4.37;;
1685;SDS011;840;47.980;7.830;2022-09-01T11:46:20;7.17;;;5.10;;
1685;SDS011;840;47.980;7.830;2022-09-01T11:48:50;9.93;;;4.57;;
1685;SDS011;840;47.980;7.830;2022-09-01T11:51:18;4.70;;;4.30;;
1685;SDS011;840;47.980;7.830;2022-09-01T11:53:46;4.97;;;4.43;;
1685;SDS011;840;47.980;7.830;2022-09-01T11:56:15;4.23;;;3.87;;
1685;SDS011;840;47.980;7.830;2022-09-01T11:58:44;4.93;;;3.53;;
1685;SDS011;840;47.980;7.830;2022-09-01T12:01:12;3.67;;;3.37;;
1685;SDS011;840;47.980;7.830;2022-09-01T12:03:41;4.37;;;4.07;;
1685;SDS011;840;47.980;7.830;2022-09-01T12:06:10;4.70;;;4.40;;
1685;SDS011;840;47.980;7.830;2022-09-01T12:08:40;5.10;;;4.60;;
1685;SDS011;840;47.980;7.830;2022-09-01T12:11:17;4.43;;;3.87;;
1685;SDS011;840;47.980;7.830;2022-09-01T12:13:53;4.20;;;3.90;;
1685;SDS011;840;47.980;7.830;2022-09-01T12:16:21;11.00;;;5.03;;
1685;SDS011;840;47.980;7.830;2022-09-01T12:18:51;21.43;;;6.13;;
1685;SDS011;840;47.980;7.830;2022-09-01T12:21:21;4.67;;;4.27;;
1685;SDS011;840;47.980;7.830;2022-09-01T12:23:51;3.60;;;3.40;;
1685;SDS011;840;47.980;7.830;2022-09-01T12:26:27;4.97;;;3.80;;
1685;SDS011;840;47.980;7.830;2022-09-01T12:28:55;4.50;;;4.20;;
1685;SDS011;840;47.980;7.830;2022-09-01T12:31:24;3.97;;;3.60;;
1685;SDS011;840;47.980;7.830;2022-09-01T12:33:52;5.37;;;4.20;;
1685;SDS011;840;47.980;7.830;2022-09-01T12:36:22;4.30;;;4.00;;
1685;SDS011;840;47.980;7.830;2022-09-01T12:38:54;8.77;;;4.90;;
1685;SDS011;840;47.980;7.830;2022-09-01T12:41:24;4.07;;;3.77;;
1685;SDS011;840;47.980;7.830;2022-09-01T12:46:52;4.37;;;4.03;;
1685;SDS011;840;47.980;7.830;2022-09-01T12:49:21;4.30;;;3.93;;
1685;SDS011;840;47.980;7.830;2022-09-01T12:51:54;4.10;;;3.80;;
1685;SDS011;840;47.980;7.830;2022-09-01T12:54:33;3.90;;;3.20;;
1685;SDS011;840;47.980;7.830;2022-09-01T12:57:00;3.70;;;3.37;;
1685;SDS011;840;47.980;7.830;2022-09-01T12:59:26;2.90;;;2.70;;
1685;SDS011;840;47.980;7.830;2022-09-01T13:01:53;4.97;;;4.57;;
1685;SDS011;840;47.980;7.830;2022-09-01T13:04:25;3.20;;;3.00;;
1685;SDS011;840;47.980;7.830;2022-09-01T13:06:54;5.90;;;3.73;;
1685;SDS011;840;47.980;7.830;2022-09-01T13:09:25;6.50;;;3.47;;
1685;SDS011;840;47.980;7.830;2022-09-01T13:11:53;3.10;;;2.90;;
1685;SDS011;840;47.980;7.830;2022-09-01T13:14:35;7.50;;;2.40;;
1685;SDS011;840;47.980;7.830;2022-09-01T13:17:02;2.17;;;2.07;;
1685;SDS011;840;47.980;7.830;2022-09-01T13:19:29;3.40;;;3.10;;
1685;SDS011;840;47.980;7.830;2022-09-01T13:21:56;2.50;;;2.40;;
1685;SDS011;840;47.980;7.830;2022-09-01T13:24:23;3.17;;;2.97;;
1685;SDS011;840;47.980;7.830;2022-09-01T13:26:50;3.70;;;2.50;;
1685;SDS011;840;47.980;7.830;2022-09-01T13:29:22;2.97;;;2.77;;
1685;SDS011;840;47.980;7.830;2022-09-01T13:31:49;2.90;;;2.10;;
1685;SDS011;840;47.980;7.830;2022-09-01T13:34:16;2.53;;;2.43;;
1685;SDS011;840;47.980;7.830;2022-09-01T13:36:43;3.20;;;2.90;;
1685;SDS011;840;47.980;7.830;2022-09-01T13:39:10;2.30;;;2.10;;
1685;SDS011;840;47.980;7.830;2022-09-01T13:41:37;2.40;;;2.23;;
1685;SDS011;840;47.980;7.830;2022-09-01T13:44:04;2.10;;;2.00;;
1685;SDS011;840;47.980;7.830;2022-09-01T13:46:36;3.20;;;3.00;;
1685;SDS011;840;47.980;7.830;2022-09-01T13:49:03;2.60;;;2.40;;
1685;SDS011;840;47.980;7.830;2022-09-01T13:51:29;5.33;;;2.47;;
1685;SDS011;840;47.980;7.830;2022-09-01T13:53:56;3.73;;;2.37;;
1685;SDS011;840;47.980;7.830;2022-09-01T13:56:23;2.30;;;2.20;;
1685;SDS011;840;47.980;7.830;2022-09-01T13:58:50;2.87;;;2.63;;
1685;SDS011;840;47.980;7.830;2022-09-01T14:01:17;2.20;;;2.10;;
1685;SDS011;840;47.980;7.830;2022-09-01T14:03:45;2.10;;;2.00;;
1685;SDS011;840;47.980;7.830;2022-09-01T14:06:12;1.63;;;1.53;;
1685;SDS011;840;47.980;7.830;2022-09-01T14:08:39;1.50;;;1.43;;
1685;SDS011;840;47.980;7.830;2022-09-01T14:11:06;2.00;;;1.90;;
1685;SDS011;840;47.980;7.830;2022-09-01T14:13:33;1.47;;;1.17;;
1685;SDS011;840;47.980;7.830;2022-09-01T14:16:00;1.57;;;1.47;;
1685;SDS011;840;47.980;7.830;2022-09-01T14:18:28;1.80;;;1.70;;
1685;SDS011;840;47.980;7.830;2022-09-01T14:21:02;1.40;;;1.30;;
1685;SDS011;840;47.980;7.830;2022-09-01T14:23:29;1.70;;;1.60;;
1685;SDS011;840;47.980;7.830;2022-09-01T14:25:56;1.30;;;1.20;;
1685;SDS011;840;47.980;7.830;2022-09-01T14:28:23;1.70;;;1.40;;
1685;SDS011;840;47.980;7.830;2022-09-01T14:30:50;1.83;;;1.73;;
1685;SDS011;840;47.980;7.830;2022-09-01T14:33:17;1.73;;;1.63;;
1685;SDS011;840;47.980;7.830;2022-09-01T14:35:48;1.47;;;1.37;;
1685;SDS011;840;47.980;7.830;2022-09-01T14:38:16;1.20;;;1.03;;
1685;SDS011;840;47.980;7.830;2022-09-01T14:40:45;1.40;;;1.30;;
1685;SDS011;840;47.980;7.830;2022-09-01T14:43:15;2.40;;;1.60;;
1685;SDS011;840;47.980;7.830;2022-09-01T14:45:43;2.20;;;1.57;;
1685;SDS011;840;47.980;7.830;2022-09-01T14:48:13;1.53;;;1.43;;
1685;SDS011;840;47.980;7.830;2022-09-01T14:50:42;1.20;;;1.20;;
1685;SDS011;840;47.980;7.830;2022-09-01T14:53:10;1.27;;;1.17;;
1685;SDS011;840;47.980;7.830;2022-09-01T14:55:39;1.50;;;1.40;;
1685;SDS011;840;47.980;7.830;2022-09-01T14:58:06;1.53;;;1.43;;
1685;SDS011;840;47.980;7.830;2022-09-01T15:00:33;1.40;;;1.30;;
1685;SDS011;840;47.980;7.830;2022-09-01T15:03:00;1.63;;;1.40;;
1685;SDS011;840;47.980;7.830;2022-09-01T15:05:28;1.70;;;1.60;;
1685;SDS011;840;47.980;7.830;2022-09-01T15:07:55;1.43;;;1.33;;
1685;SDS011;840;47.980;7.830;2022-09-01T15:10:22;1.53;;;1.43;;
1685;SDS011;840;47.980;7.830;2022-09-01T15:12:52;1.03;;;1.00;;
1685;SDS011;840;47.980;7.830;2022-09-01T15:15:21;2.63;;;1.33;;
1685;SDS011;840;47.980;7.830;2022-09-01T15:17:48;1.60;;;1.50;;
1685;SDS011;840;47.980;7.830;2022-09-01T15:20:15;1.40;;;1.30;;
1685;SDS011;840;47.980;7.830;2022-09-01T15:23:00;1.73;;;1.63;;
1685;SDS011;840;47.980;7.830;2022-09-01T15:25:27;1.53;;;1.43;;
1685;SDS011;840;47.980;7.830;2022-09-01T15:27:55;1.80;;;1.70;;
1685;SDS011;840;47.980;7.830;2022-09-01T15:30:22;1.67;;;1.57;;
1685;SDS011;840;47.980;7.830;2022-09-01T15:32:49;1.90;;;1.70;;
1685;SDS011;840;47.980;7.830;2022-09-01T15:35:18;1.50;;;1.40;;
1685;SDS011;840;47.980;7.830;2022-09-01T15:37:46;2.10;;;1.70;;
1685;SDS011;840;47.980;7.830;2022-09-01T15:40:14;2.03;;;1.20;;
1685;SDS011;840;47.980;7.830;2022-09-01T15:42:41;2.80;;;1.70;;
1685;SDS011;840;47.980;7.830;2022-09-01T15:45:10;2.17;;;1.53;;
1685;SDS011;840;47.980;7.830;2022-09-01T15:47:38;1.77;;;1.67;;
1685;SDS011;840;47.980;7.830;2022-09-01T15:50:06;2.00;;;1.90;;
1685;SDS011;840;47.980;7.830;2022-09-01T15:52:38;2.07;;;1.97;;
1685;SDS011;840;47.980;7.830;2022-09-01T15:55:14;2.40;;;1.90;;
1685;SDS011;840;47.980;7.830;2022-09-01T15:57:41;1.47;;;1.37;;
1685;SDS011;840;47.980;7.830;2022-09-01T16:00:21;1.60;;;1.50;;
1685;SDS011;840;47.980;7.830;2022-09-01T16:02:49;2.07;;;1.87;;
1685;SDS011;840;47.980;7.830;2022-09-01T16:05:16;3.10;;;1.57;;
1685;SDS011;840;47.980;7.830;2022-09-01T16:07:42;1.60;;;1.50;;
1685;SDS011;840;47.980;7.830;2022-09-01T16:10:10;1.80;;;1.70;;
1685;SDS011;840;47.980;7.830;2022-09-01T16:12:38;1.80;;;1.70;;
1685;SDS011;840;47.980;7.830;2022-09-01T16:15:08;1.93;;;1.83;;